createdAt,value
2022-09-07T00:01:40.314Z,92.56
2022-09-07T00:04:08.871Z,92.27
2022-09-07T00:06:35.806Z,91.62
2022-09-07T00:09:03.737Z,90.48
2022-09-07T00:11:30.359Z,90.08
2022-09-07T00:13:57.340Z,89.23
2022-09-07T00:16:31.149Z,88.66
2022-09-07T00:19:00.440Z,89.61
2022-09-07T00:21:27.565Z,89.65
2022-09-07T00:23:54.286Z,90.79
2022-09-07T00:26:25.754Z,90.68
2022-09-07T00:28:53.099Z,90.86
2022-09-07T00:31:23.250Z,91.03
2022-09-07T00:33:51.883Z,90.63
2022-09-07T00:36:20.601Z,90.43
2022-09-07T00:38:47.624Z,90.13
2022-09-07T00:41:14.717Z,90.45
2022-09-07T00:43:48.764Z,89.56
2022-09-07T00:46:22.363Z,89.78
2022-09-07T00:49:03.162Z,89.58
2022-09-07T00:51:39.360Z,89.33
2022-09-07T00:54:10.505Z,89.16
2022-09-07T00:56:44.038Z,88.99
2022-09-07T00:59:14.160Z,89.34
2022-09-07T01:01:41.112Z,89.37
2022-09-07T01:04:08.962Z,89.17
2022-09-07T01:06:38.084Z,89.68
2022-09-07T01:09:11.078Z,89.74
2022-09-07T01:11:38.450Z,89.44
2022-09-07T01:14:10.213Z,89.50
2022-09-07T01:16:52.309Z,90.25
2022-09-07T01:19:34.739Z,90.66
2022-09-07T01:22:29.727Z,91.14
2022-09-07T01:24:59.337Z,90.72
2022-09-07T01:27:44.361Z,90.85
2022-09-07T01:30:23.341Z,91.01
2022-09-07T01:33:11.396Z,91.02
2022-09-07T01:35:50.295Z,91.18
2022-09-07T01:38:35.202Z,91.13
2022-09-07T01:41:09.107Z,91.45
2022-09-07T01:44:11.688Z,91.63
2022-09-07T01:46:49.800Z,91.69
2022-09-07T01:49:36.937Z,91.38
2022-09-07T01:52:15.077Z,91.15
2022-09-07T01:54:47.295Z,90.84
2022-09-07T01:57:19.367Z,91.55
2022-09-07T02:00:13.305Z,91.75
2022-09-07T02:02:45.916Z,92.14
2022-09-07T02:05:19.748Z,92.28
2022-09-07T02:08:13.392Z,92.02
2022-09-07T02:10:45.425Z,91.93
2022-09-07T02:13:21.090Z,92.43
2022-09-07T02:15:58.253Z,92.50
2022-09-07T02:18:29.706Z,92.38
2022-09-07T02:20:58.891Z,92.62
2022-09-07T02:23:30.654Z,92.65
2022-09-07T02:26:05.790Z,92.51
2022-09-07T02:28:35.503Z,92.68
2022-09-07T02:31:03.044Z,92.57
2022-09-07T02:33:30.026Z,93.41
2022-09-07T02:35:57.663Z,93.52
2022-09-07T02:38:25.113Z,94.76
2022-09-07T02:40:53.876Z,94.73
2022-09-07T02:43:22.955Z,94.25
2022-09-07T02:46:28.004Z,94.51
2022-09-07T02:49:06.260Z,94.64
2022-09-07T02:52:17.664Z,95.38
2022-09-07T02:55:10.971Z,95.19
2022-09-07T02:57:52.975Z,94.77
2022-09-07T03:00:26.089Z,94.39
2022-09-07T03:02:55.815Z,94.65
2022-09-07T03:06:04.196Z,94.73
2022-09-07T03:08:36.852Z,95.00
2022-09-07T03:11:07.437Z,94.22
2022-09-07T03:13:34.501Z,94.72
2022-09-07T03:16:01.295Z,95.24
2022-09-07T03:18:28.669Z,95.84
2022-09-07T03:20:55.444Z,96.88
2022-09-07T03:23:22.682Z,96.81
2022-09-07T03:25:49.521Z,96.13
2022-09-07T03:28:16.659Z,95.67
2022-09-07T03:30:47.331Z,96.45
2022-09-07T03:33:15.943Z,97.42
2022-09-07T03:35:56.569Z,97.53
2022-09-07T03:38:23.258Z,97.30
2022-09-07T03:41:03.586Z,97.08
2022-09-07T03:43:31.034Z,96.85
2022-09-07T03:46:02.945Z,96.72
2022-09-07T03:48:34.641Z,96.81
2022-09-07T03:51:06.623Z,95.99
2022-09-07T03:53:35.759Z,96.45
2022-09-07T03:56:08.665Z,96.85
2022-09-07T03:58:36.123Z,96.87
2022-09-07T04:01:08.789Z,96.66
2022-09-07T04:03:36.078Z,97.40
2022-09-07T04:06:04.438Z,97.18
2022-09-07T04:08:33.526Z,97.07
2022-09-07T04:11:01.648Z,97.18
2022-09-07T04:13:29.346Z,97.06
2022-09-07T04:15:56.449Z,97.41
2022-09-07T04:18:23.763Z,96.74
2022-09-07T04:20:50.865Z,95.89
2022-09-07T04:23:19.211Z,96.79
2022-09-07T04:25:49.976Z,96.41
2022-09-07T04:28:18.017Z,95.61
2022-09-07T04:30:45.114Z,96.41
2022-09-07T04:33:12.300Z,97.68
2022-09-07T04:35:40.656Z,97.21
2022-09-07T04:38:08.402Z,97.41
2022-09-07T04:40:36.047Z,97.18
2022-09-07T04:43:02.658Z,97.11
2022-09-07T04:45:29.284Z,97.51
2022-09-07T04:47:55.959Z,97.85
2022-09-07T04:50:24.179Z,97.95
2022-09-07T04:52:51.043Z,97.55
2022-09-07T04:55:17.737Z,97.48
2022-09-07T04:57:44.364Z,97.43
2022-09-07T05:00:11.703Z,97.37
2022-09-07T05:02:38.520Z,97.11
2022-09-07T05:05:06.409Z,97.43
2022-09-07T05:07:33.086Z,96.86
2022-09-07T05:09:59.792Z,96.24
2022-09-07T05:12:26.804Z,96.38
2022-09-07T05:14:53.977Z,95.86
2022-09-07T05:17:20.724Z,96.83
2022-09-07T05:19:48.307Z,97.23
2022-09-07T05:22:14.983Z,96.75
2022-09-07T05:24:41.669Z,96.88
2022-09-07T05:27:08.322Z,96.85
2022-09-07T05:32:21.923Z,96.66
2022-09-07T05:34:50.892Z,97.46
2022-09-07T05:37:19.126Z,97.77
2022-09-07T05:39:45.864Z,97.55
2022-09-07T05:42:12.578Z,97.38
2022-09-07T05:47:09.034Z,98.45
2022-09-07T05:49:35.903Z,98.60
2022-09-07T05:52:02.853Z,98.67
2022-09-07T05:54:29.462Z,99.96
2022-09-07T05:56:56.091Z,100.00
2022-09-07T05:59:22.749Z,100.00
2022-09-07T06:01:49.472Z,100.00
2022-09-07T06:04:16.306Z,100.00
2022-09-07T06:06:54.648Z,100.00
2022-09-07T06:09:31.544Z,100.00
2022-09-07T06:11:58.136Z,100.00
2022-09-07T06:14:25.100Z,100.00
2022-09-07T06:16:51.767Z,100.00
2022-09-07T06:19:18.520Z,100.00
2022-09-07T06:21:45.241Z,100.00
2022-09-07T06:24:11.898Z,100.00
2022-09-07T06:26:38.525Z,100.00
2022-09-07T06:29:05.182Z,100.00
2022-09-07T06:31:32.084Z,100.00
2022-09-07T06:33:58.892Z,100.00
2022-09-07T06:36:27.825Z,100.00
2022-09-07T06:38:55.865Z,100.00
2022-09-07T06:44:17.874Z,100.00
2022-09-07T06:49:26.596Z,100.00
2022-09-07T06:51:53.399Z,100.00
2022-09-07T06:57:09.245Z,98.71
2022-09-07T06:59:37.545Z,97.98
2022-09-07T07:02:05.816Z,96.41
2022-09-07T07:04:37.765Z,95.44
2022-09-07T07:07:10.832Z,94.49
2022-09-07T07:09:37.985Z,94.05
2022-09-07T07:12:04.691Z,93.00
2022-09-07T07:14:34.366Z,92.39
2022-09-07T07:17:02.277Z,91.68
2022-09-07T07:19:29.118Z,90.55
2022-09-07T07:22:29.701Z,89.82
2022-09-07T07:24:42.437Z,88.92
2022-09-07T07:27:09.063Z,88.88
2022-09-07T07:29:35.676Z,87.93
2022-09-07T07:32:02.670Z,87.69
2022-09-07T07:34:29.367Z,87.42
2022-09-07T07:36:56.236Z,87.10
2022-09-07T07:42:09.982Z,86.02
2022-09-07T07:44:36.749Z,85.03
2022-09-07T07:47:03.643Z,85.29
2022-09-07T07:49:31.112Z,85.59
2022-09-07T07:54:45.261Z,84.42
2022-09-07T07:57:11.954Z,83.86
2022-09-07T07:59:39.107Z,83.22
2022-09-07T08:02:08.882Z,82.69
2022-09-07T08:04:36.202Z,81.72
2022-09-07T08:07:09.440Z,81.52
2022-09-07T08:09:41.596Z,81.68
2022-09-07T08:12:11.388Z,80.54
2022-09-07T08:14:41.799Z,78.67
2022-09-07T08:17:14.356Z,78.87
2022-09-07T08:19:41.509Z,78.10
2022-09-07T08:22:09.411Z,76.97
2022-09-07T08:24:36.373Z,76.42
2022-09-07T08:27:03.685Z,76.17
2022-09-07T08:29:34.635Z,75.65
2022-09-07T08:32:06.548Z,75.58
2022-09-07T08:34:36.169Z,74.80
2022-09-07T08:37:03.347Z,74.00
2022-09-07T08:39:30.465Z,73.03
2022-09-07T08:42:11.356Z,72.18
2022-09-07T08:44:40.776Z,70.55
2022-09-07T08:47:28.520Z,68.33
2022-09-07T08:50:28.623Z,68.61
2022-09-07T08:53:14.154Z,67.82
2022-09-07T08:56:00.791Z,67.43
2022-09-07T08:58:49.551Z,65.53
2022-09-07T09:01:33.219Z,65.58
2022-09-07T09:04:18.001Z,66.59
2022-09-07T09:07:15.111Z,66.26
2022-09-07T09:09:52.888Z,65.73
2022-09-07T09:12:37.504Z,65.71
2022-09-07T09:15:10.421Z,65.57
2022-09-07T09:18:01.623Z,64.89
2022-09-07T09:20:46.305Z,65.00
2022-09-07T10:48:37.645Z,50.99
2022-09-07T10:51:14.471Z,51.36
2022-09-07T10:57:09.336Z,52.45
2022-09-07T11:06:09.617Z,49.36
2022-09-07T11:12:01.753Z,47.77
2022-09-07T11:14:36.553Z,48.04
2022-09-07T11:17:12.618Z,48.56
2022-09-07T11:19:50.278Z,48.38
2022-09-07T11:22:28.159Z,47.67
2022-09-07T11:25:31.055Z,45.96
2022-09-07T11:28:14.325Z,46.22
2022-09-07T11:30:47.592Z,46.77
2022-09-07T11:33:38.936Z,46.99
2022-09-07T11:36:17.904Z,46.65
2022-09-07T11:39:03.322Z,46.02
2022-09-07T11:41:34.102Z,45.68
2022-09-07T11:44:18.875Z,43.71
2022-09-07T11:46:49.216Z,43.97
2022-09-07T11:49:21.270Z,43.72
2022-09-07T11:51:56.640Z,43.20
2022-09-07T11:54:44.861Z,42.26
2022-09-07T11:57:14.739Z,42.24
2022-09-07T11:59:44.320Z,42.71
2022-09-07T12:02:57.679Z,41.78
2022-09-07T12:05:25.082Z,40.29
2022-09-07T12:08:14.726Z,40.85
2022-09-07T12:10:56.560Z,39.97
2022-09-07T12:13:44.594Z,40.15
2022-09-07T12:16:14.424Z,40.80
2022-09-07T12:19:13.675Z,40.79
2022-09-07T12:21:52.602Z,39.86
2022-09-07T12:24:40.121Z,38.16
2022-09-07T12:27:11.615Z,38.49
2022-09-07T12:29:45.187Z,38.24
2022-09-07T12:34:59.023Z,37.62
2022-09-07T12:37:25.605Z,36.50
2022-09-07T12:40:30.681Z,36.50
2022-09-07T12:43:48.112Z,37.20
2022-09-07T12:46:34.888Z,38.34
2022-09-07T12:49:07.965Z,37.84
2022-09-07T12:54:36.563Z,37.44
2022-09-07T13:00:06.556Z,38.17
2022-09-07T13:02:36.279Z,37.44
2022-09-07T13:05:06.309Z,38.02
2022-09-07T13:07:35.987Z,38.41
2022-09-07T13:10:05.547Z,37.77
2022-09-07T13:15:41.961Z,39.31
2022-09-07T13:18:34.897Z,39.73
2022-09-07T13:21:07.850Z,39.94
2022-09-07T13:23:39.020Z,38.92
2022-09-07T13:26:09.168Z,37.71
2022-09-07T13:29:02.197Z,38.30
2022-09-07T13:31:57.146Z,38.48
2022-09-07T13:34:33.622Z,39.41
2022-09-07T13:37:02.456Z,39.87
2022-09-07T13:39:37.929Z,38.28
2022-09-07T13:42:04.834Z,38.16
2022-09-07T13:44:35.080Z,38.96
2022-09-07T13:47:32.647Z,37.71
2022-09-07T13:50:16.834Z,35.71
2022-09-07T13:53:21.819Z,36.79
2022-09-07T13:56:37.716Z,37.56
2022-09-07T13:59:32.000Z,38.38
2022-09-07T14:01:59.049Z,38.57
2022-09-07T14:04:34.684Z,38.60
2022-09-07T14:07:14.893Z,38.19
2022-09-07T14:09:42.143Z,38.47
2022-09-07T14:12:20.706Z,38.88
2022-09-07T14:15:09.191Z,39.25
2022-09-07T14:17:36.421Z,38.63
2022-09-07T14:20:04.097Z,38.71
2022-09-07T14:22:35.428Z,38.12
2022-09-07T14:25:05.925Z,36.50
2022-09-07T14:27:36.443Z,35.68
2022-09-07T14:30:21.500Z,35.17
2022-09-07T14:32:52.693Z,34.94
2022-09-07T14:35:22.433Z,35.63
2022-09-07T14:37:50.041Z,36.88
2022-09-07T14:40:22.745Z,36.80
2022-09-07T14:42:50.761Z,36.61
2022-09-07T14:45:23.132Z,36.79
2022-09-07T14:47:55.608Z,36.77
2022-09-07T14:51:00.976Z,37.61
2022-09-07T14:53:36.502Z,37.75
2022-09-07T14:56:10.161Z,38.32
2022-09-07T14:58:36.909Z,38.03
2022-09-07T15:04:02.835Z,33.92
2022-09-07T15:09:38.200Z,33.43
2022-09-07T15:12:19.111Z,32.77
2022-09-07T15:14:47.983Z,32.15
2022-09-07T15:20:48.145Z,31.78
2022-09-07T15:23:17.486Z,31.79
2022-09-07T15:25:50.998Z,31.99
2022-09-07T15:34:09.753Z,32.93
2022-09-07T15:36:42.738Z,33.44
2022-09-07T15:39:21.719Z,33.69
2022-09-07T15:41:48.871Z,34.38
2022-09-07T15:44:16.455Z,34.21
2022-09-07T15:47:43.290Z,35.57
2022-09-07T15:49:30.926Z,36.26
2022-09-07T15:52:05.410Z,35.39
2022-09-07T15:54:35.306Z,34.94
2022-09-07T15:59:50.550Z,32.40
2022-09-07T16:05:04.729Z,35.15
2022-09-07T16:10:19.256Z,35.55
2022-09-07T16:13:03.890Z,36.32
2022-09-07T16:15:34.145Z,36.77
2022-09-07T16:18:02.113Z,37.08
2022-09-07T16:20:32.055Z,38.04
2022-09-07T16:23:15.851Z,38.05
2022-09-07T16:25:55.012Z,38.27
2022-09-07T16:28:21.745Z,38.58
2022-09-07T16:30:48.502Z,38.62
2022-09-07T16:33:15.261Z,38.89
2022-09-07T16:35:42.072Z,39.18
2022-09-07T16:40:55.478Z,39.96
2022-09-07T16:43:22.147Z,39.63
2022-09-07T16:46:04.887Z,38.14
2022-09-07T16:48:33.298Z,35.18
2022-09-07T16:51:02.631Z,34.72
2022-09-07T16:53:31.535Z,34.00
2022-09-07T16:56:05.712Z,35.30
2022-09-07T16:58:47.324Z,36.87
2022-09-07T17:01:19.646Z,37.51
2022-09-07T17:03:46.968Z,38.91
2022-09-07T17:06:14.282Z,39.46
2022-09-07T17:08:42.522Z,39.94
2022-09-07T17:11:18.397Z,40.60
2022-09-07T17:13:46.266Z,41.50
2022-09-07T17:16:16.916Z,41.89
2022-09-07T17:21:35.687Z,42.63
2022-09-07T17:24:04.489Z,43.31
2022-09-07T17:26:32.239Z,43.75
2022-09-07T17:29:00.644Z,43.92
2022-09-07T17:34:20.539Z,43.92
2022-09-07T17:36:47.619Z,44.26
2022-09-07T17:39:16.831Z,44.23
2022-09-07T17:41:45.135Z,44.50
2022-09-07T17:44:11.980Z,44.72
2022-09-07T17:46:38.878Z,45.05
2022-09-07T17:49:08.086Z,45.21
2022-09-07T17:51:36.069Z,45.45
2022-09-07T17:54:09.662Z,45.44
2022-09-07T17:56:37.680Z,45.55
2022-09-07T18:01:51.252Z,46.18
2022-09-07T18:04:18.015Z,46.44
2022-09-07T18:06:44.732Z,46.56
2022-09-07T18:09:13.967Z,46.96
2022-09-07T18:11:47.339Z,47.02
2022-09-07T18:14:15.411Z,47.30
2022-09-07T18:16:43.842Z,48.28
2022-09-07T18:19:12.341Z,48.43
2022-09-07T18:21:41.984Z,48.67
2022-09-07T18:24:16.983Z,49.53
2022-09-07T18:26:49.692Z,50.13
2022-09-07T18:29:28.621Z,50.82
2022-09-07T18:31:58.350Z,51.41
2022-09-07T18:34:25.589Z,51.78
2022-09-07T18:36:52.386Z,52.82
2022-09-07T18:39:19.095Z,52.36
2022-09-07T18:41:45.838Z,53.03
2022-09-07T18:46:59.530Z,53.83
2022-09-07T18:49:26.226Z,54.54
2022-09-07T18:54:41.414Z,57.33
2022-09-07T18:57:08.289Z,56.39
2022-09-07T18:59:34.991Z,59.12
2022-09-07T19:02:04.768Z,57.95
2022-09-07T19:07:20.698Z,58.45
2022-09-07T19:09:48.279Z,58.18
2022-09-07T19:12:15.491Z,58.81
2022-09-07T19:14:42.433Z,59.27
2022-09-07T19:17:11.800Z,59.42
2022-09-07T19:19:39.676Z,58.52
2022-09-07T19:22:06.428Z,59.08
2022-09-07T19:24:33.408Z,59.86
2022-09-07T19:27:00.862Z,60.49
2022-09-07T19:29:28.305Z,59.89
2022-09-07T19:32:07.799Z,59.36
2022-09-07T19:34:37.139Z,60.27
2022-09-07T19:37:05.723Z,62.04
2022-09-07T19:39:32.754Z,61.61
2022-09-07T19:42:00.021Z,63.17
2022-09-07T19:44:26.761Z,64.00
2022-09-07T19:46:53.588Z,64.33
2022-09-07T19:49:20.322Z,64.58
2022-09-07T19:51:50.222Z,64.61
2022-09-07T19:54:16.935Z,65.32
2022-09-07T19:56:44.804Z,64.56
2022-09-07T19:59:12.399Z,64.38
2022-09-07T20:01:40.625Z,65.17
2022-09-07T20:04:14.747Z,64.14
2022-09-07T20:06:42.822Z,70.04
2022-09-07T20:09:09.547Z,65.79
2022-09-07T20:11:37.077Z,67.97
2022-09-07T20:14:03.862Z,67.18
2022-09-07T20:16:31.290Z,66.82
2022-09-07T20:18:59.203Z,65.99
2022-09-07T20:21:26.132Z,65.36
2022-09-07T20:23:52.872Z,65.38
2022-09-07T20:26:21.294Z,65.50
2022-09-07T20:29:05.924Z,65.56
2022-09-07T20:31:41.086Z,66.10
2022-09-07T20:34:09.644Z,66.30
2022-09-07T20:36:36.330Z,65.33
2022-09-07T20:39:04.491Z,63.20
2022-09-07T20:41:33.898Z,62.64
2022-09-07T20:44:03.188Z,62.88
2022-09-07T20:46:30.847Z,62.65
2022-09-07T20:48:58.131Z,61.39
2022-09-07T20:51:25.139Z,61.57
2022-09-07T20:53:52.112Z,62.27
2022-09-07T20:56:24.518Z,60.93
2022-09-07T20:59:02.066Z,60.80
2022-09-07T21:01:31.344Z,61.13
2022-09-07T21:03:59.427Z,61.69
2022-09-07T21:06:27.609Z,61.89
2022-09-07T21:08:56.946Z,62.14
2022-09-07T21:11:26.431Z,63.16
2022-09-07T21:13:58.350Z,63.73
2022-09-07T21:16:25.898Z,63.27
2022-09-07T21:18:58.315Z,64.15
2022-09-07T21:21:27.331Z,64.79
2022-09-07T21:23:59.670Z,64.60
2022-09-07T21:26:31.592Z,65.83
2022-09-07T21:29:00.707Z,65.43
2022-09-07T21:31:29.747Z,64.76
2022-09-07T21:33:58.799Z,64.17
2022-09-07T21:36:26.320Z,62.73
2022-09-07T21:38:54.351Z,63.76
2022-09-07T21:41:23.091Z,64.63
2022-09-07T21:44:01.273Z,63.97
2022-09-07T21:46:30.628Z,63.90
2022-09-07T21:48:58.331Z,63.94
2022-09-07T21:51:26.283Z,64.79
2022-09-07T21:53:54.946Z,64.88
2022-09-07T21:56:22.195Z,65.48
2022-09-07T21:58:52.691Z,65.95
2022-09-07T22:01:19.429Z,66.41
2022-09-07T22:03:48.109Z,66.49
2022-09-07T22:06:15.245Z,67.67
2022-09-07T22:08:42.320Z,68.60
2022-09-07T22:11:14.843Z,69.02
2022-09-07T22:13:44.180Z,69.51
2022-09-07T22:16:11.888Z,69.67
2022-09-07T22:18:40.218Z,68.64
2022-09-07T22:21:13.777Z,69.20
2022-09-07T22:23:43.365Z,68.95
2022-09-07T22:26:10.121Z,68.88
2022-09-07T22:28:37.747Z,68.74
2022-09-07T22:31:19.075Z,68.30
2022-09-07T22:33:47.275Z,68.43
2022-09-07T22:36:17.030Z,67.64
2022-09-07T22:38:46.027Z,68.10
2022-09-07T22:41:18.467Z,67.34
2022-09-07T22:43:45.877Z,67.10
2022-09-07T22:46:13.706Z,67.69
2022-09-07T22:48:41.360Z,67.61
2022-09-07T22:51:09.160Z,67.61
2022-09-07T22:53:37.082Z,67.99
2022-09-07T22:56:09.626Z,67.46
2022-09-07T22:58:37.237Z,66.66
2022-09-07T23:01:05.179Z,65.42
2022-09-07T23:03:34.368Z,67.88
2022-09-07T23:06:01.555Z,66.79
2022-09-07T23:08:28.376Z,66.08
2022-09-07T23:10:55.554Z,65.02
2022-09-07T23:13:22.290Z,65.03
2022-09-07T23:15:49.783Z,66.25
2022-09-07T23:18:22.351Z,65.18
2022-09-07T23:20:49.034Z,68.25
2022-09-07T23:23:16.425Z,69.58
2022-09-07T23:25:43.211Z,67.19
2022-09-07T23:28:12.282Z,67.62
2022-09-07T23:30:43.048Z,69.74
2022-09-07T23:33:09.866Z,70.81
2022-09-07T23:35:36.504Z,71.66
2022-09-07T23:38:03.453Z,72.07
2022-09-07T23:40:31.818Z,73.77
2022-09-07T23:42:58.477Z,74.53
2022-09-07T23:45:25.241Z,75.57
2022-09-07T23:47:51.923Z,75.75
2022-09-07T23:50:18.716Z,76.28
2022-09-07T23:52:45.455Z,77.33
2022-09-07T23:55:12.162Z,78.14
2022-09-07T23:57:39.308Z,79.60
